createdAt,value
2018-07-20T00:00:09.168Z,21.90
2018-07-20T00:02:37.556Z,22.00
2018-07-20T00:05:06.638Z,22.00
2018-07-20T00:07:35.088Z,22.10
2018-07-20T00:10:03.529Z,22.00
2018-07-20T00:12:32.000Z,21.90
2018-07-20T00:15:00.504Z,21.80
2018-07-20T00:17:29.007Z,21.70
2018-07-20T00:19:57.416Z,21.60
2018-07-20T00:22:25.880Z,21.60
2018-07-20T00:24:54.315Z,21.40
2018-07-20T00:27:22.779Z,21.20
2018-07-20T00:29:51.187Z,21.10
2018-07-20T00:32:19.627Z,21.10
2018-07-20T00:34:48.076Z,21.10
2018-07-20T00:37:16.489Z,21.10
2018-07-20T00:39:44.900Z,21.10
2018-07-20T00:42:13.379Z,21.10
2018-07-20T00:44:41.818Z,21.00
2018-07-20T00:47:10.232Z,21.00
2018-07-20T00:49:38.640Z,20.90
2018-07-20T00:52:07.168Z,20.90
2018-07-20T00:54:35.576Z,20.70
2018-07-20T00:57:04.032Z,20.50
2018-07-20T00:59:32.407Z,20.40
2018-07-20T01:02:00.836Z,20.30
2018-07-20T01:04:29.286Z,20.20
2018-07-20T01:06:57.708Z,20.30
2018-07-20T01:09:26.232Z,20.30
2018-07-20T01:11:54.832Z,20.40
2018-07-20T01:14:23.267Z,20.40
2018-07-20T01:16:52.008Z,20.30
2018-07-20T01:19:20.624Z,20.30
2018-07-20T01:21:49.071Z,20.10
2018-07-20T01:24:17.488Z,20.00
2018-07-20T01:26:45.879Z,19.80
2018-07-20T01:29:14.303Z,19.40
2018-07-20T01:31:42.801Z,19.30
2018-07-20T01:34:11.208Z,19.10
2018-07-20T01:36:39.679Z,19.00
2018-07-20T01:39:09.056Z,19.00
2018-07-20T01:41:37.747Z,18.90
2018-07-20T01:44:06.227Z,18.90
2018-07-20T01:46:34.656Z,18.70
2018-07-20T01:49:03.078Z,18.60
2018-07-20T01:51:31.487Z,18.70
2018-07-20T01:53:59.883Z,18.70
2018-07-20T01:56:28.415Z,18.70
2018-07-20T01:58:56.847Z,18.70
2018-07-20T02:03:54.432Z,18.50
2018-07-20T02:06:22.890Z,18.50
2018-07-20T02:08:51.319Z,18.50
2018-07-20T02:11:19.744Z,18.40
2018-07-20T02:13:48.164Z,18.40
2018-07-20T02:16:16.602Z,18.40
2018-07-20T02:18:44.995Z,18.40
2018-07-20T02:21:13.396Z,18.40
2018-07-20T02:23:41.830Z,18.20
2018-07-20T02:26:10.371Z,18.00
2018-07-20T02:28:38.791Z,17.90
2018-07-20T02:31:07.607Z,17.80
2018-07-20T02:33:36.139Z,17.70
2018-07-20T02:36:04.574Z,17.70
2018-07-20T02:38:32.988Z,17.70
2018-07-20T02:41:01.425Z,17.70
2018-07-20T02:43:29.803Z,17.60
2018-07-20T02:45:58.263Z,17.60
2018-07-20T02:48:26.668Z,17.60
2018-07-20T02:50:55.296Z,17.60
2018-07-20T02:53:23.754Z,17.60
2018-07-20T02:55:52.143Z,17.60
2018-07-20T02:58:20.664Z,17.50
2018-07-20T03:00:49.216Z,17.50
2018-07-20T03:03:17.640Z,17.40
2018-07-20T03:05:46.176Z,17.30
2018-07-20T03:08:14.593Z,17.30
2018-07-20T03:10:43.017Z,17.20
2018-07-20T03:13:11.412Z,17.20
2018-07-20T03:15:39.836Z,17.20
2018-07-20T03:18:08.228Z,17.20
2018-07-20T03:20:36.672Z,17.30
2018-07-20T03:23:05.246Z,17.30
2018-07-20T03:25:33.721Z,17.30
2018-07-20T03:28:02.212Z,17.30
2018-07-20T03:30:30.768Z,17.20
2018-07-20T03:32:59.350Z,17.20
2018-07-20T03:35:28.092Z,17.20
2018-07-20T03:37:56.493Z,17.20
2018-07-20T03:40:25.423Z,17.20
2018-07-20T03:42:53.963Z,17.20
2018-07-20T03:45:22.416Z,17.30
2018-07-20T03:47:50.831Z,17.40
2018-07-20T03:50:19.447Z,17.30
2018-07-20T03:52:48.104Z,17.50
2018-07-20T03:55:16.520Z,17.50
2018-07-20T03:57:44.946Z,17.60
2018-07-20T04:00:13.367Z,17.70
2018-07-20T04:02:41.839Z,17.60
2018-07-20T04:05:10.293Z,17.60
2018-07-20T04:07:38.751Z,17.50
2018-07-20T04:10:07.385Z,17.50
2018-07-20T04:12:35.757Z,17.50
2018-07-20T04:15:04.256Z,17.50
2018-07-20T04:17:37.867Z,17.40
2018-07-20T04:20:06.755Z,17.50
2018-07-20T04:22:35.213Z,17.50
2018-07-20T04:25:03.738Z,17.50
2018-07-20T04:27:32.274Z,17.40
2018-07-20T04:30:00.682Z,17.50
2018-07-20T04:32:29.135Z,17.40
2018-07-20T04:34:57.646Z,17.20
2018-07-20T04:37:26.313Z,17.20
2018-07-20T04:39:54.831Z,17.30
2018-07-20T04:42:23.299Z,17.30
2018-07-20T04:44:51.709Z,17.40
2018-07-20T04:47:20.125Z,17.40
2018-07-20T04:49:48.644Z,17.50
2018-07-20T04:52:17.048Z,17.40
2018-07-20T04:54:45.791Z,17.30
2018-07-20T04:57:14.252Z,17.20
2018-07-20T04:59:42.678Z,17.30
2018-07-20T05:02:11.096Z,17.30
2018-07-20T05:04:39.502Z,17.50
2018-07-20T05:07:08.090Z,17.60
2018-07-20T05:09:36.549Z,17.60
2018-07-20T05:12:05.162Z,17.60
2018-07-20T05:14:33.639Z,17.60
2018-07-20T05:17:02.020Z,17.70
2018-07-20T05:19:30.535Z,17.80
2018-07-20T05:21:58.974Z,17.80
2018-07-20T05:24:27.471Z,17.70
2018-07-20T05:26:55.995Z,17.90
2018-07-20T05:29:24.472Z,18.00
2018-07-20T05:31:52.943Z,18.10
2018-07-20T05:34:21.420Z,18.20
2018-07-20T05:36:49.971Z,18.40
2018-07-20T05:39:18.432Z,18.60
2018-07-20T05:41:46.907Z,18.80
2018-07-20T05:44:15.315Z,19.00
2018-07-20T05:46:43.723Z,19.10
2018-07-20T05:49:12.145Z,19.30
2018-07-20T05:51:40.579Z,19.50
2018-07-20T05:54:09.124Z,19.60
2018-07-20T05:56:37.544Z,19.80
2018-07-20T05:59:05.969Z,20.10
2018-07-20T06:01:34.367Z,20.30
2018-07-20T06:04:02.825Z,20.40
2018-07-20T06:06:31.209Z,20.40
2018-07-20T06:08:59.636Z,20.60
2018-07-20T06:11:29.320Z,20.80
2018-07-20T06:13:57.756Z,21.20
2018-07-20T06:16:26.216Z,21.30
2018-07-20T06:18:54.648Z,21.40
2018-07-20T06:21:23.084Z,21.40
2018-07-20T06:23:51.597Z,21.50
2018-07-20T06:26:19.976Z,21.70
2018-07-20T06:28:48.390Z,21.60
2018-07-20T06:31:16.800Z,21.50
2018-07-20T06:33:45.247Z,21.70
2018-07-20T06:36:13.688Z,21.90
2018-07-20T06:38:42.212Z,22.20
2018-07-20T06:41:10.668Z,22.40
2018-07-20T06:43:43.904Z,22.50
2018-07-20T06:46:12.442Z,22.80
2018-07-20T06:48:40.824Z,23.00
2018-07-20T06:51:09.610Z,23.00
2018-07-20T06:53:38.122Z,23.10
2018-07-20T06:56:06.556Z,23.30
2018-07-20T06:58:35.016Z,23.40
2018-07-20T07:01:03.611Z,23.60
2018-07-20T07:03:31.981Z,23.90
2018-07-20T07:06:00.432Z,24.00
2018-07-20T07:08:28.852Z,24.00
2018-07-20T07:10:57.233Z,24.00
2018-07-20T07:13:25.713Z,24.20
2018-07-20T07:15:54.165Z,24.30
2018-07-20T07:18:22.600Z,24.50
2018-07-20T07:20:51.156Z,24.90
2018-07-20T07:23:19.552Z,25.00
2018-07-20T07:25:48.071Z,25.10
2018-07-20T07:28:17.005Z,25.20
2018-07-20T07:30:45.372Z,25.30
2018-07-20T07:33:13.836Z,25.30
2018-07-20T07:35:42.322Z,25.20
2018-07-20T07:38:10.728Z,25.00
2018-07-20T07:40:39.141Z,24.90
2018-07-20T07:43:07.680Z,24.90
2018-07-20T07:45:36.099Z,24.90
2018-07-20T07:48:04.668Z,24.80
2018-07-20T07:50:33.110Z,24.90
2018-07-20T07:53:01.635Z,25.00
2018-07-20T07:55:30.048Z,25.40
2018-07-20T07:57:58.512Z,25.60
2018-07-20T08:00:26.914Z,26.00
2018-07-20T08:02:55.383Z,26.40
2018-07-20T08:05:23.804Z,26.90
2018-07-20T08:07:52.209Z,27.20
2018-07-20T08:10:20.625Z,27.30
2018-07-20T08:12:49.247Z,27.50
2018-07-20T08:15:17.675Z,27.40
2018-07-20T08:17:46.217Z,27.30
2018-07-20T08:20:14.655Z,27.20
2018-07-20T08:22:43.076Z,26.70
2018-07-20T08:25:12.007Z,26.50
2018-07-20T08:27:40.459Z,26.40
2018-07-20T08:30:08.929Z,26.50
2018-07-20T08:32:37.337Z,26.50
2018-07-20T08:35:06.019Z,26.30
2018-07-20T08:37:34.467Z,26.00
2018-07-20T08:40:02.885Z,26.10
2018-07-20T08:42:31.279Z,26.40
2018-07-20T08:44:59.707Z,27.10
2018-07-20T08:47:28.143Z,27.50
2018-07-20T08:49:56.615Z,27.80
2018-07-20T08:52:25.040Z,28.30
2018-07-20T08:54:54.886Z,28.60
2018-07-20T08:57:23.285Z,28.70
2018-07-20T08:59:51.746Z,28.80
2018-07-20T09:02:20.139Z,28.70
2018-07-20T09:04:48.592Z,28.60
2018-07-20T09:07:17.075Z,28.30
2018-07-20T09:09:45.507Z,28.20
2018-07-20T09:12:13.955Z,28.20
2018-07-20T09:14:42.451Z,28.40
2018-07-20T09:17:11.092Z,28.70
2018-07-20T09:19:39.530Z,28.90
2018-07-20T09:22:08.104Z,29.10
2018-07-20T09:24:37.039Z,29.30
2018-07-20T09:27:05.489Z,29.60
2018-07-20T09:29:33.909Z,29.80
2018-07-20T09:32:02.398Z,29.90
2018-07-20T09:34:30.820Z,29.70
2018-07-20T09:36:59.223Z,29.80
2018-07-20T09:39:27.601Z,29.60
2018-07-20T09:41:56.001Z,29.90
2018-07-20T09:44:24.462Z,30.10
2018-07-20T09:46:52.845Z,30.80
2018-07-20T09:49:21.253Z,31.20
2018-07-20T09:51:49.708Z,31.60
2018-07-20T09:54:18.473Z,31.80
2018-07-20T09:56:46.873Z,31.70
2018-07-20T09:59:15.272Z,31.70
2018-07-20T10:01:43.707Z,31.60
2018-07-20T10:04:12.227Z,31.50
2018-07-20T10:06:40.784Z,31.40
2018-07-20T10:09:11.192Z,31.40
2018-07-20T10:11:39.641Z,31.50
2018-07-20T10:14:08.127Z,31.30
2018-07-20T10:16:36.665Z,31.40
2018-07-20T10:19:05.485Z,31.50
2018-07-20T10:21:33.833Z,31.10
2018-07-20T10:24:02.241Z,31.10
2018-07-20T10:26:30.663Z,31.10
2018-07-20T10:28:59.637Z,31.30
2018-07-20T10:31:28.036Z,31.20
2018-07-20T10:33:56.563Z,31.40
2018-07-20T10:36:24.999Z,31.30
2018-07-20T10:38:53.415Z,31.30
2018-07-20T10:41:22.299Z,31.10
2018-07-20T10:43:50.771Z,31.10
2018-07-20T10:46:19.283Z,30.90
2018-07-20T10:48:47.739Z,31.10
2018-07-20T10:51:16.297Z,30.90
2018-07-20T10:53:44.747Z,31.00
2018-07-20T10:56:13.139Z,31.30
2018-07-20T10:58:44.062Z,31.10
2018-07-20T11:01:12.572Z,31.10
2018-07-20T11:03:42.135Z,31.20
2018-07-20T11:06:10.671Z,31.10
2018-07-20T11:08:39.157Z,31.10
2018-07-20T11:11:08.147Z,31.30
2018-07-20T11:13:36.713Z,31.30
2018-07-20T11:16:05.118Z,31.30
2018-07-20T11:18:34.071Z,31.20
2018-07-20T11:21:02.776Z,31.00
2018-07-20T11:23:31.335Z,31.00
2018-07-20T11:25:59.839Z,31.10
2018-07-20T11:28:28.331Z,31.10
2018-07-20T11:30:56.749Z,31.10
2018-07-20T11:33:25.162Z,31.20
2018-07-20T11:35:53.573Z,31.40
2018-07-20T11:38:22.087Z,31.30
2018-07-20T11:40:50.592Z,31.40
2018-07-20T11:43:19.017Z,31.40
2018-07-20T11:45:47.489Z,31.50
2018-07-20T11:48:15.920Z,31.50
2018-07-20T11:50:44.338Z,31.50
2018-07-20T11:53:12.770Z,31.50
2018-07-20T11:55:41.173Z,31.50
2018-07-20T11:58:09.617Z,31.60
2018-07-20T12:00:38.136Z,31.50
2018-07-20T12:03:06.633Z,31.60
2018-07-20T12:05:35.047Z,31.30
2018-07-20T12:08:03.539Z,31.20
2018-07-20T12:10:31.942Z,31.20
2018-07-20T12:13:00.381Z,31.10
2018-07-20T12:15:28.777Z,30.90
2018-07-20T12:17:57.270Z,30.70
2018-07-20T12:20:25.747Z,30.70
2018-07-20T12:22:54.217Z,30.80
2018-07-20T12:25:22.652Z,30.90
2018-07-20T12:27:51.088Z,30.80
2018-07-20T12:30:19.540Z,30.60
2018-07-20T12:32:48.050Z,30.50
2018-07-20T12:35:16.496Z,30.20
2018-07-20T12:37:44.916Z,30.10
2018-07-20T12:40:13.316Z,29.90
2018-07-20T12:42:41.743Z,29.60
2018-07-20T12:45:10.152Z,29.70
2018-07-20T12:47:38.589Z,29.90
2018-07-20T12:50:07.062Z,29.90
2018-07-20T12:52:35.481Z,29.90
2018-07-20T12:55:03.963Z,30.00
2018-07-20T12:57:32.395Z,30.20
2018-07-20T13:00:01.705Z,30.10
2018-07-20T13:02:30.167Z,30.10
2018-07-20T13:04:58.595Z,30.20
2018-07-20T13:07:26.995Z,30.30
2018-07-20T13:09:55.533Z,30.30
2018-07-20T13:12:23.981Z,30.30
2018-07-20T13:14:52.396Z,30.40
2018-07-20T13:17:20.820Z,30.30
2018-07-20T13:19:50.417Z,30.30
2018-07-20T13:22:19.044Z,30.30
2018-07-20T13:24:47.481Z,30.40
2018-07-20T13:27:16.513Z,30.50
2018-07-20T13:29:50.381Z,30.50
2018-07-20T13:32:18.779Z,30.60
2018-07-20T13:34:47.202Z,30.70
2018-07-20T13:37:15.619Z,30.70
2018-07-20T13:39:44.187Z,30.70
2018-07-20T13:42:12.613Z,30.60
2018-07-20T13:44:41.068Z,30.50
2018-07-20T13:47:09.596Z,30.50
2018-07-20T13:52:06.396Z,30.30
2018-07-20T13:54:34.879Z,30.40
2018-07-20T13:57:04.329Z,30.40
2018-07-20T13:59:32.749Z,30.40
2018-07-20T14:02:01.248Z,30.40
2018-07-20T14:04:29.659Z,30.50
2018-07-20T14:06:58.097Z,30.50
2018-07-20T14:09:26.520Z,30.40
2018-07-20T14:11:54.968Z,30.50
2018-07-20T14:14:24.155Z,30.40
2018-07-20T14:16:52.621Z,30.40
2018-07-20T14:19:22.076Z,30.50
2018-07-20T14:21:50.614Z,30.50
2018-07-20T14:24:19.034Z,30.60
2018-07-20T14:26:47.520Z,30.60
2018-07-20T14:29:16.040Z,30.60
2018-07-20T14:31:44.572Z,30.70
2018-07-20T14:34:12.869Z,30.70
2018-07-20T14:36:54.506Z,30.70
2018-07-20T14:39:32.417Z,30.60
2018-07-20T14:42:01.000Z,30.60
2018-07-20T14:44:38.476Z,30.60
2018-07-20T14:47:07.068Z,30.60
2018-07-20T14:49:35.572Z,30.50
2018-07-20T14:52:04.027Z,30.40
2018-07-20T14:54:36.676Z,30.40
2018-07-20T14:57:07.248Z,30.40
2018-07-20T15:02:16.014Z,30.20
2018-07-20T15:04:44.493Z,30.20
2018-07-20T15:07:13.619Z,30.10
2018-07-20T15:09:43.223Z,30.20
2018-07-20T15:12:11.966Z,30.10
2018-07-20T15:14:40.329Z,30.10
2018-07-20T15:17:08.737Z,30.00
2018-07-20T15:19:38.036Z,30.00
2018-07-20T15:22:06.847Z,30.00
2018-07-20T15:24:35.779Z,30.00
2018-07-20T15:27:04.451Z,30.00
2018-07-20T15:29:32.891Z,30.00
2018-07-20T15:32:01.444Z,30.00
2018-07-20T15:34:29.859Z,30.00
2018-07-20T15:36:58.369Z,30.00
2018-07-20T15:39:26.796Z,29.80
2018-07-20T15:41:55.196Z,29.50
2018-07-20T15:44:23.606Z,29.40
2018-07-20T15:46:52.464Z,29.20
2018-07-20T15:49:20.619Z,29.20
2018-07-20T15:53:35.462Z,29.10
2018-07-20T15:54:17.850Z,29.10
2018-07-20T15:56:46.198Z,29.20
2018-07-20T15:59:14.592Z,29.10
2018-07-20T16:01:42.988Z,29.00
2018-07-20T16:04:11.384Z,29.00
2018-07-20T16:06:39.836Z,29.00
2018-07-20T16:09:10.340Z,29.00
2018-07-20T16:11:38.843Z,29.00
2018-07-20T16:14:07.277Z,29.10
2018-07-20T16:16:35.900Z,29.20
2018-07-20T16:19:04.534Z,29.20
2018-07-20T16:21:33.145Z,29.20
2018-07-20T16:24:01.631Z,29.20
2018-07-20T16:26:30.290Z,29.00
2018-07-20T16:28:58.768Z,28.90
2018-07-20T16:31:28.092Z,28.90
2018-07-20T16:33:56.674Z,28.80
2018-07-20T16:36:25.108Z,28.70
2018-07-20T16:38:53.531Z,28.60
2018-07-20T16:41:22.049Z,28.60
2018-07-20T16:43:50.468Z,28.50
2018-07-20T16:46:19.353Z,28.40
2018-07-20T16:48:47.760Z,28.40
2018-07-20T16:51:16.189Z,28.30
2018-07-20T16:53:44.637Z,28.30
2018-07-20T16:56:13.076Z,28.40
2018-07-20T16:58:41.614Z,28.30
2018-07-20T17:01:10.577Z,28.30
2018-07-20T17:03:39.025Z,28.30
2018-07-20T17:06:08.832Z,28.20
2018-07-20T17:08:37.336Z,28.20
2018-07-20T17:11:08.645Z,28.10
2018-07-20T17:13:37.377Z,28.10
2018-07-20T17:16:06.031Z,28.10
2018-07-20T17:18:34.580Z,28.00
2018-07-20T17:21:25.353Z,27.90
2018-07-20T17:23:54.012Z,27.90
2018-07-20T17:26:22.648Z,27.80
2018-07-20T17:28:51.155Z,27.80
2018-07-20T17:31:19.572Z,27.70
2018-07-20T17:33:48.182Z,27.70
2018-07-20T17:36:16.652Z,27.60
2018-07-20T17:38:45.069Z,27.60
2018-07-20T17:41:13.460Z,27.50
2018-07-20T17:43:41.864Z,27.50
2018-07-20T17:46:10.273Z,27.50
2018-07-20T17:48:38.771Z,27.50
2018-07-20T17:51:07.256Z,27.50
2018-07-20T17:53:36.123Z,27.40
2018-07-20T17:56:04.530Z,27.40
2018-07-20T17:58:33.333Z,27.40
2018-07-20T18:01:01.809Z,27.30
2018-07-20T18:03:30.366Z,27.30
2018-07-20T18:05:58.816Z,27.20
2018-07-20T18:08:27.213Z,27.20
2018-07-20T18:10:55.821Z,27.10
2018-07-20T18:13:24.352Z,27.00
2018-07-20T18:15:53.260Z,26.90
2018-07-20T18:18:21.680Z,26.60
2018-07-20T18:20:50.081Z,26.40
2018-07-20T18:23:18.496Z,26.00
2018-07-20T18:25:47.028Z,25.80
2018-07-20T18:28:15.574Z,25.50
2018-07-20T18:30:52.987Z,25.40
2018-07-20T18:33:21.603Z,25.30
2018-07-20T18:35:50.044Z,25.20
2018-07-20T18:38:18.473Z,25.10
2018-07-20T18:40:47.041Z,25.10
2018-07-20T18:43:15.451Z,25.00
2018-07-20T18:45:43.943Z,24.90
2018-07-20T18:48:12.424Z,24.80
2018-07-20T18:50:40.931Z,24.50
2018-07-20T18:53:09.362Z,24.30
2018-07-20T18:55:37.808Z,24.20
2018-07-20T18:58:06.552Z,24.20
2018-07-20T19:00:35.015Z,24.30
2018-07-20T19:03:03.463Z,24.40
2018-07-20T19:05:31.935Z,24.50
2018-07-20T19:08:00.395Z,24.50
2018-07-20T19:10:28.803Z,24.30
2018-07-20T19:12:57.249Z,24.20
2018-07-20T19:15:26.851Z,24.20
2018-07-20T19:17:55.331Z,24.20
2018-07-20T19:20:23.725Z,24.20
2018-07-20T19:22:52.432Z,24.10
2018-07-20T19:25:20.897Z,24.10
2018-07-20T19:27:49.353Z,23.90
2018-07-20T19:30:17.783Z,23.90
2018-07-20T19:32:46.428Z,24.10
2018-07-20T19:35:14.912Z,24.00
2018-07-20T19:37:43.471Z,23.90
2018-07-20T19:40:11.867Z,24.00
2018-07-20T19:42:40.263Z,24.10
2018-07-20T19:45:08.805Z,24.00
2018-07-20T19:47:37.432Z,24.10
2018-07-20T19:50:06.113Z,24.20
2018-07-20T19:52:34.575Z,24.20
2018-07-20T19:55:03.051Z,24.20
2018-07-20T19:57:31.427Z,24.10
2018-07-20T19:59:59.879Z,24.10
2018-07-20T20:02:28.391Z,24.10
2018-07-20T20:04:58.149Z,24.20
2018-07-20T20:07:26.997Z,24.20
2018-07-20T20:09:55.440Z,24.20
2018-07-20T20:12:23.980Z,24.30
2018-07-20T20:14:52.384Z,24.40
2018-07-20T20:17:20.843Z,24.40
2018-07-20T20:19:49.776Z,24.50
2018-07-20T20:22:18.256Z,24.50
2018-07-20T20:24:46.668Z,24.50
2018-07-20T20:27:15.142Z,24.40
2018-07-20T20:29:43.608Z,24.30
2018-07-20T20:32:12.100Z,24.10
2018-07-20T20:34:40.840Z,23.90
2018-07-20T20:37:09.476Z,23.80
2018-07-20T20:39:37.924Z,23.70
2018-07-20T20:42:06.510Z,23.70
2018-07-20T20:44:34.933Z,23.70
2018-07-20T20:47:03.467Z,23.70
2018-07-20T20:49:32.140Z,23.90
2018-07-20T20:52:00.603Z,23.90
2018-07-20T20:54:29.047Z,24.00
2018-07-20T20:56:57.683Z,24.00
2018-07-20T20:59:26.128Z,23.90
2018-07-20T21:01:54.800Z,23.80
2018-07-20T21:04:23.640Z,23.50
2018-07-20T21:06:52.067Z,23.40
2018-07-20T21:09:20.514Z,23.30
2018-07-20T21:11:49.058Z,23.30
2018-07-20T21:14:21.375Z,23.30
2018-07-20T21:16:50.053Z,23.20
2018-07-20T21:19:18.508Z,23.20
2018-07-20T21:21:46.935Z,23.20
2018-07-20T21:24:15.365Z,23.20
2018-07-20T21:26:43.906Z,23.30
2018-07-20T21:29:12.757Z,23.30
2018-07-20T21:31:41.152Z,23.30
2018-07-20T21:34:10.171Z,23.30
2018-07-20T21:36:39.105Z,23.20
2018-07-20T21:39:09.775Z,23.20
2018-07-20T21:41:38.555Z,23.20
2018-07-20T21:44:06.995Z,23.20
2018-07-20T21:46:35.436Z,23.10
2018-07-20T21:49:03.878Z,23.10
2018-07-20T21:51:33.195Z,23.10
2018-07-20T21:54:01.682Z,23.20
2018-07-20T21:56:30.383Z,23.30
2018-07-20T21:58:58.924Z,23.50
2018-07-20T22:01:27.628Z,23.70
2018-07-20T22:03:56.040Z,23.90
2018-07-20T22:06:24.560Z,24.00
2018-07-20T22:08:53.000Z,23.90
2018-07-20T22:11:21.411Z,23.90
2018-07-20T22:13:50.060Z,24.10
2018-07-20T22:16:18.988Z,24.20
2018-07-20T22:18:47.391Z,24.30
2018-07-20T22:21:16.278Z,24.30
2018-07-20T22:23:44.848Z,24.40
2018-07-20T22:26:13.720Z,24.40
2018-07-20T22:28:42.164Z,24.40
2018-07-20T22:31:10.718Z,24.40
2018-07-20T22:33:39.095Z,24.50
2018-07-20T22:36:07.491Z,24.50
2018-07-20T22:38:35.912Z,24.50
2018-07-20T22:41:04.550Z,24.30
2018-07-20T22:43:32.962Z,24.40
2018-07-20T22:46:01.378Z,24.40
2018-07-20T22:48:29.767Z,24.30
2018-07-20T22:50:58.342Z,24.30
2018-07-20T22:53:26.746Z,24.20
2018-07-20T22:55:55.223Z,24.20
2018-07-20T22:58:23.674Z,24.20
2018-07-20T23:00:52.161Z,24.10
2018-07-20T23:03:20.572Z,24.00
2018-07-20T23:05:49.970Z,24.00
2018-07-20T23:08:18.350Z,24.00
2018-07-20T23:10:46.772Z,24.10
2018-07-20T23:13:15.898Z,24.10
2018-07-20T23:15:44.307Z,24.10
2018-07-20T23:18:12.783Z,24.20
2018-07-20T23:20:41.226Z,24.20
2018-07-20T23:23:09.606Z,24.20
2018-07-20T23:25:37.984Z,24.20
2018-07-20T23:28:06.838Z,24.20
2018-07-20T23:30:35.269Z,24.20
2018-07-20T23:33:03.705Z,24.20
2018-07-20T23:35:32.080Z,24.10
2018-07-20T23:38:00.529Z,24.10
2018-07-20T23:40:28.926Z,24.10
2018-07-20T23:42:57.363Z,24.10
2018-07-20T23:45:25.738Z,24.10
2018-07-20T23:47:54.167Z,24.20
2018-07-20T23:50:22.600Z,24.20
2018-07-20T23:52:51.079Z,24.20
2018-07-20T23:55:19.510Z,24.20
2018-07-20T23:57:47.934Z,24.20
